sensor_id;sensor_type;location;lat;lon;timestamp;P1;durP1;ratioP1;P2;durP2;ratioP2
10134;SDS011;5107;48.850;8.924;2023-06-26T00:01:25;8.77;;;7.03;;
10134;SDS011;5107;48.850;8.924;2023-06-26T00:03:54;7.83;;;7.03;;
10134;SDS011;5107;48.850;8.924;2023-06-26T00:06:20;7.60;;;6.90;;
10134;SDS011;5107;48.850;8.924;2023-06-26T00:08:45;7.15;;;6.45;;
10134;SDS011;5107;48.850;8.924;2023-06-26T00:11:10;8.27;;;7.38;;
10134;SDS011;5107;48.850;8.924;2023-06-26T00:13:36;8.65;;;7.82;;
10134;SDS011;5107;48.850;8.924;2023-06-26T00:16:01;7.93;;;7.13;;
10134;SDS011;5107;48.850;8.924;2023-06-26T00:18:28;8.05;;;7.22;;
10134;SDS011;5107;48.850;8.924;2023-06-26T00:20:54;7.80;;;7.00;;
10134;SDS011;5107;48.850;8.924;2023-06-26T00:23:19;7.85;;;7.13;;
10134;SDS011;5107;48.850;8.924;2023-06-26T00:25:44;7.97;;;7.17;;
10134;SDS011;5107;48.850;8.924;2023-06-26T00:28:10;7.30;;;6.60;;
10134;SDS011;5107;48.850;8.924;2023-06-26T00:30:35;9.63;;;7.13;;
10134;SDS011;5107;48.850;8.924;2023-06-26T00:33:01;7.77;;;7.00;;
10134;SDS011;5107;48.850;8.924;2023-06-26T00:35:26;7.33;;;6.63;;
10134;SDS011;5107;48.850;8.924;2023-06-26T00:37:51;8.27;;;7.47;;
10134;SDS011;5107;48.850;8.924;2023-06-26T00:40:17;7.93;;;7.13;;
10134;SDS011;5107;48.850;8.924;2023-06-26T00:42:43;7.97;;;7.27;;
10134;SDS011;5107;48.850;8.924;2023-06-26T00:45:09;7.47;;;6.77;;
10134;SDS011;5107;48.850;8.924;2023-06-26T00:47:34;7.30;;;6.47;;
10134;SDS011;5107;48.850;8.924;2023-06-26T00:49:59;8.13;;;7.40;;
10134;SDS011;5107;48.850;8.924;2023-06-26T00:52:25;8.77;;;7.30;;
10134;SDS011;5107;48.850;8.924;2023-06-26T00:54:50;7.70;;;7.00;;
10134;SDS011;5107;48.850;8.924;2023-06-26T00:57:17;8.13;;;7.33;;
10134;SDS011;5107;48.850;8.924;2023-06-26T00:59:43;8.13;;;7.33;;
10134;SDS011;5107;48.850;8.924;2023-06-26T01:02:08;7.00;;;6.30;;
10134;SDS011;5107;48.850;8.924;2023-06-26T01:04:34;8.10;;;7.30;;
10134;SDS011;5107;48.850;8.924;2023-06-26T01:07:01;8.73;;;6.97;;
10134;SDS011;5107;48.850;8.924;2023-06-26T01:09:27;7.97;;;7.17;;
10134;SDS011;5107;48.850;8.924;2023-06-26T01:11:53;7.63;;;6.83;;
10134;SDS011;5107;48.850;8.924;2023-06-26T01:14:19;7.40;;;6.67;;
10134;SDS011;5107;48.850;8.924;2023-06-26T01:16:44;7.63;;;6.93;;
10134;SDS011;5107;48.850;8.924;2023-06-26T01:19:13;7.60;;;6.90;;
10134;SDS011;5107;48.850;8.924;2023-06-26T01:25:29;7.83;;;7.03;;
10134;SDS011;5107;48.850;8.924;2023-06-26T01:27:55;7.47;;;6.63;;
10134;SDS011;5107;48.850;8.924;2023-06-26T01:30:21;7.30;;;6.60;;
10134;SDS011;5107;48.850;8.924;2023-06-26T01:32:47;7.83;;;7.03;;
10134;SDS011;5107;48.850;8.924;2023-06-26T01:35:14;7.97;;;7.17;;
10134;SDS011;5107;48.850;8.924;2023-06-26T01:37:40;7.23;;;6.53;;
10134;SDS011;5107;48.850;8.924;2023-06-26T01:40:06;7.63;;;6.93;;
10134;SDS011;5107;48.850;8.924;2023-06-26T01:42:32;8.00;;;7.20;;
10134;SDS011;5107;48.850;8.924;2023-06-26T01:44:58;7.47;;;6.70;;
10134;SDS011;5107;48.850;8.924;2023-06-26T01:47:32;8.67;;;7.03;;
10134;SDS011;5107;48.850;8.924;2023-06-26T01:50:02;8.43;;;7.17;;
10134;SDS011;5107;48.850;8.924;2023-06-26T01:55:31;8.10;;;7.30;;
10134;SDS011;5107;48.850;8.924;2023-06-26T01:58:01;7.90;;;7.10;;
10134;SDS011;5107;48.850;8.924;2023-06-26T02:00:26;7.60;;;6.90;;
10134;SDS011;5107;48.850;8.924;2023-06-26T02:02:52;7.63;;;6.93;;
10134;SDS011;5107;48.850;8.924;2023-06-26T02:05:18;8.47;;;7.33;;
10134;SDS011;5107;48.850;8.924;2023-06-26T02:07:43;7.23;;;6.53;;
10134;SDS011;5107;48.850;8.924;2023-06-26T02:10:09;8.47;;;6.67;;
10134;SDS011;5107;48.850;8.924;2023-06-26T02:12:35;7.37;;;6.70;;
10134;SDS011;5107;48.850;8.924;2023-06-26T02:15:02;8.20;;;7.23;;
10134;SDS011;5107;48.850;8.924;2023-06-26T02:17:29;8.47;;;6.90;;
10134;SDS011;5107;48.850;8.924;2023-06-26T02:19:54;8.33;;;7.43;;
10134;SDS011;5107;48.850;8.924;2023-06-26T02:22:19;7.60;;;6.80;;
10134;SDS011;5107;48.850;8.924;2023-06-26T02:24:45;7.60;;;6.90;;
10134;SDS011;5107;48.850;8.924;2023-06-26T02:27:10;7.20;;;6.50;;
10134;SDS011;5107;48.850;8.924;2023-06-26T02:29:36;7.63;;;6.93;;
10134;SDS011;5107;48.850;8.924;2023-06-26T02:32:01;7.77;;;7.07;;
10134;SDS011;5107;48.850;8.924;2023-06-26T02:34:27;7.50;;;6.80;;
10134;SDS011;5107;48.850;8.924;2023-06-26T02:36:52;8.77;;;7.50;;
10134;SDS011;5107;48.850;8.924;2023-06-26T02:39:21;7.80;;;7.03;;
10134;SDS011;5107;48.850;8.924;2023-06-26T02:41:46;8.30;;;7.37;;
10134;SDS011;5107;48.850;8.924;2023-06-26T02:44:12;8.10;;;7.30;;
10134;SDS011;5107;48.850;8.924;2023-06-26T02:46:38;7.63;;;6.93;;
10134;SDS011;5107;48.850;8.924;2023-06-26T02:49:04;7.70;;;6.93;;
10134;SDS011;5107;48.850;8.924;2023-06-26T02:51:29;7.83;;;7.03;;
10134;SDS011;5107;48.850;8.924;2023-06-26T02:53:57;7.70;;;7.00;;
10134;SDS011;5107;48.850;8.924;2023-06-26T02:56:22;7.80;;;7.00;;
10134;SDS011;5107;48.850;8.924;2023-06-26T02:58:47;7.57;;;6.87;;
10134;SDS011;5107;48.850;8.924;2023-06-26T03:01:13;7.63;;;6.87;;
10134;SDS011;5107;48.850;8.924;2023-06-26T03:03:38;7.67;;;6.97;;
10134;SDS011;5107;48.850;8.924;2023-06-26T03:06:06;7.43;;;6.73;;
10134;SDS011;5107;48.850;8.924;2023-06-26T03:08:32;7.37;;;6.67;;
10134;SDS011;5107;48.850;8.924;2023-06-26T03:10:58;8.20;;;7.17;;
10134;SDS011;5107;48.850;8.924;2023-06-26T03:13:23;8.23;;;7.43;;
10134;SDS011;5107;48.850;8.924;2023-06-26T03:15:48;7.80;;;7.00;;
10134;SDS011;5107;48.850;8.924;2023-06-26T03:18:14;7.33;;;6.70;;
10134;SDS011;5107;48.850;8.924;2023-06-26T03:20:39;7.65;;;6.85;;
10134;SDS011;5107;48.850;8.924;2023-06-26T03:23:05;7.60;;;6.90;;
10134;SDS011;5107;48.850;8.924;2023-06-26T03:25:30;7.57;;;6.87;;
10134;SDS011;5107;48.850;8.924;2023-06-26T03:27:56;8.03;;;7.23;;
10134;SDS011;5107;48.850;8.924;2023-06-26T03:30:21;7.60;;;6.90;;
10134;SDS011;5107;48.850;8.924;2023-06-26T03:32:46;7.60;;;6.83;;
10134;SDS011;5107;48.850;8.924;2023-06-26T03:35:12;8.43;;;6.93;;
10134;SDS011;5107;48.850;8.924;2023-06-26T03:37:37;8.20;;;7.33;;
10134;SDS011;5107;48.850;8.924;2023-06-26T03:40:02;9.87;;;7.10;;
10134;SDS011;5107;48.850;8.924;2023-06-26T03:42:29;8.07;;;7.33;;
10134;SDS011;5107;48.850;8.924;2023-06-26T03:44:55;7.43;;;6.60;;
10134;SDS011;5107;48.850;8.924;2023-06-26T03:47:20;7.60;;;6.90;;
10134;SDS011;5107;48.850;8.924;2023-06-26T03:49:45;7.83;;;6.83;;
10134;SDS011;5107;48.850;8.924;2023-06-26T03:52:11;8.03;;;7.23;;
10134;SDS011;5107;48.850;8.924;2023-06-26T03:54:36;7.47;;;6.73;;
10134;SDS011;5107;48.850;8.924;2023-06-26T03:57:01;7.50;;;6.80;;
10134;SDS011;5107;48.850;8.924;2023-06-26T03:59:27;7.60;;;6.90;;
10134;SDS011;5107;48.850;8.924;2023-06-26T04:01:52;7.80;;;7.10;;
10134;SDS011;5107;48.850;8.924;2023-06-26T04:04:18;9.83;;;6.87;;
10134;SDS011;5107;48.850;8.924;2023-06-26T04:06:43;7.40;;;6.70;;
10134;SDS011;5107;48.850;8.924;2023-06-26T04:09:08;7.97;;;7.17;;
10134;SDS011;5107;48.850;8.924;2023-06-26T04:11:34;7.83;;;6.83;;
10134;SDS011;5107;48.850;8.924;2023-06-26T04:13:59;7.50;;;6.80;;
10134;SDS011;5107;48.850;8.924;2023-06-26T04:16:25;7.60;;;6.90;;
10134;SDS011;5107;48.850;8.924;2023-06-26T04:18:51;7.03;;;6.32;;
10134;SDS011;5107;48.850;8.924;2023-06-26T04:21:17;7.65;;;6.95;;
10134;SDS011;5107;48.850;8.924;2023-06-26T04:23:42;7.22;;;6.53;;
10134;SDS011;5107;48.850;8.924;2023-06-26T04:26:08;7.55;;;6.85;;
10134;SDS011;5107;48.850;8.924;2023-06-26T04:28:34;8.38;;;6.78;;
10134;SDS011;5107;48.850;8.924;2023-06-26T04:31:00;7.32;;;6.65;;
10134;SDS011;5107;48.850;8.924;2023-06-26T04:33:26;7.53;;;6.68;;
10134;SDS011;5107;48.850;8.924;2023-06-26T04:35:52;7.68;;;6.97;;
10134;SDS011;5107;48.850;8.924;2023-06-26T04:38:19;7.05;;;6.35;;
10134;SDS011;5107;48.850;8.924;2023-06-26T04:40:45;9.50;;;6.38;;
10134;SDS011;5107;48.850;8.924;2023-06-26T04:43:10;7.05;;;6.45;;
10134;SDS011;5107;48.850;8.924;2023-06-26T04:45:36;7.05;;;6.40;;
10134;SDS011;5107;48.850;8.924;2023-06-26T04:48:01;7.90;;;7.10;;
10134;SDS011;5107;48.850;8.924;2023-06-26T04:50:27;7.28;;;6.57;;
10134;SDS011;5107;48.850;8.924;2023-06-26T04:52:54;6.80;;;6.20;;
10134;SDS011;5107;48.850;8.924;2023-06-26T04:55:19;6.63;;;6.03;;
10134;SDS011;5107;48.850;8.924;2023-06-26T04:57:46;7.03;;;6.38;;
10134;SDS011;5107;48.850;8.924;2023-06-26T05:00:12;6.78;;;6.10;;
10134;SDS011;5107;48.850;8.924;2023-06-26T05:02:37;7.20;;;6.50;;
10134;SDS011;5107;48.850;8.924;2023-06-26T05:05:03;6.80;;;6.20;;
10134;SDS011;5107;48.850;8.924;2023-06-26T05:07:28;7.60;;;6.45;;
10134;SDS011;5107;48.850;8.924;2023-06-26T05:09:54;7.85;;;6.53;;
10134;SDS011;5107;48.850;8.924;2023-06-26T05:12:20;7.32;;;6.63;;
10134;SDS011;5107;48.850;8.924;2023-06-26T05:14:45;6.70;;;6.10;;
10134;SDS011;5107;48.850;8.924;2023-06-26T05:17:11;7.25;;;6.50;;
10134;SDS011;5107;48.850;8.924;2023-06-26T05:19:39;7.65;;;6.60;;
10134;SDS011;5107;48.850;8.924;2023-06-26T05:22:04;6.60;;;6.00;;
10134;SDS011;5107;48.850;8.924;2023-06-26T05:24:32;7.15;;;6.50;;
10134;SDS011;5107;48.850;8.924;2023-06-26T05:27:02;7.07;;;6.38;;
10134;SDS011;5107;48.850;8.924;2023-06-26T05:29:30;6.82;;;6.22;;
10134;SDS011;5107;48.850;8.924;2023-06-26T05:31:56;7.70;;;6.57;;
10134;SDS011;5107;48.850;8.924;2023-06-26T05:34:24;8.50;;;6.97;;
10134;SDS011;5107;48.850;8.924;2023-06-26T05:36:54;7.28;;;6.38;;
10134;SDS011;5107;48.850;8.924;2023-06-26T05:39:22;7.10;;;6.50;;
10134;SDS011;5107;48.850;8.924;2023-06-26T05:41:49;6.97;;;6.32;;
10134;SDS011;5107;48.850;8.924;2023-06-26T05:44:15;6.85;;;6.25;;
10134;SDS011;5107;48.850;8.924;2023-06-26T05:46:40;6.95;;;6.35;;
10134;SDS011;5107;48.850;8.924;2023-06-26T05:49:06;6.93;;;6.32;;
10134;SDS011;5107;48.850;8.924;2023-06-26T05:51:31;6.82;;;6.22;;
10134;SDS011;5107;48.850;8.924;2023-06-26T05:53:57;7.97;;;7.18;;
10134;SDS011;5107;48.850;8.924;2023-06-26T05:56:22;7.38;;;6.68;;
10134;SDS011;5107;48.850;8.924;2023-06-26T05:58:48;7.82;;;7.13;;
10134;SDS011;5107;48.850;8.924;2023-06-26T06:01:14;6.95;;;6.25;;
10134;SDS011;5107;48.850;8.924;2023-06-26T06:03:40;6.30;;;5.70;;
10134;SDS011;5107;48.850;8.924;2023-06-26T06:06:05;6.40;;;5.80;;
10134;SDS011;5107;48.850;8.924;2023-06-26T06:08:31;7.13;;;6.53;;
10134;SDS011;5107;48.850;8.924;2023-06-26T06:10:57;7.50;;;6.80;;
10134;SDS011;5107;48.850;8.924;2023-06-26T06:13:22;6.95;;;6.30;;
10134;SDS011;5107;48.850;8.924;2023-06-26T06:15:47;5.85;;;5.35;;
10134;SDS011;5107;48.850;8.924;2023-06-26T06:18:13;6.32;;;5.72;;
10134;SDS011;5107;48.850;8.924;2023-06-26T06:20:38;6.65;;;5.88;;
10134;SDS011;5107;48.850;8.924;2023-06-26T06:23:03;6.03;;;5.53;;
10134;SDS011;5107;48.850;8.924;2023-06-26T06:25:29;6.57;;;5.97;;
10134;SDS011;5107;48.850;8.924;2023-06-26T06:27:54;8.45;;;6.20;;
10134;SDS011;5107;48.850;8.924;2023-06-26T06:30:19;6.55;;;5.90;;
10134;SDS011;5107;48.850;8.924;2023-06-26T06:32:45;6.28;;;5.68;;
10134;SDS011;5107;48.850;8.924;2023-06-26T06:35:15;7.63;;;5.55;;
10134;SDS011;5107;48.850;8.924;2023-06-26T06:37:40;6.30;;;5.70;;
10134;SDS011;5107;48.850;8.924;2023-06-26T06:40:06;6.07;;;5.57;;
10134;SDS011;5107;48.850;8.924;2023-06-26T06:42:31;6.22;;;5.63;;
10134;SDS011;5107;48.850;8.924;2023-06-26T06:44:58;6.50;;;5.90;;
10134;SDS011;5107;48.850;8.924;2023-06-26T06:47:23;6.63;;;6.03;;
10134;SDS011;5107;48.850;8.924;2023-06-26T06:49:48;6.28;;;5.78;;
10134;SDS011;5107;48.850;8.924;2023-06-26T06:52:14;6.13;;;5.63;;
10134;SDS011;5107;48.850;8.924;2023-06-26T06:54:56;6.25;;;5.55;;
10134;SDS011;5107;48.850;8.924;2023-06-26T06:57:24;8.85;;;5.65;;
10134;SDS011;5107;48.850;8.924;2023-06-26T06:59:50;9.45;;;5.90;;
10134;SDS011;5107;48.850;8.924;2023-06-26T07:02:18;9.60;;;5.72;;
10134;SDS011;5107;48.850;8.924;2023-06-26T07:04:44;5.93;;;5.32;;
10134;SDS011;5107;48.850;8.924;2023-06-26T07:07:09;6.90;;;5.40;;
10134;SDS011;5107;48.850;8.924;2023-06-26T07:09:35;6.22;;;5.13;;
10134;SDS011;5107;48.850;8.924;2023-06-26T07:12:01;6.10;;;5.57;;
10134;SDS011;5107;48.850;8.924;2023-06-26T07:14:26;5.25;;;4.85;;
10134;SDS011;5107;48.850;8.924;2023-06-26T07:16:51;6.00;;;5.22;;
10134;SDS011;5107;48.850;8.924;2023-06-26T07:19:17;5.68;;;5.15;;
10134;SDS011;5107;48.850;8.924;2023-06-26T07:21:42;5.40;;;4.90;;
10134;SDS011;5107;48.850;8.924;2023-06-26T07:24:09;5.00;;;4.60;;
10134;SDS011;5107;48.850;8.924;2023-06-26T07:26:35;5.40;;;4.70;;
10134;SDS011;5107;48.850;8.924;2023-06-26T07:29:00;5.32;;;4.88;;
10134;SDS011;5107;48.850;8.924;2023-06-26T07:31:25;5.32;;;4.82;;
10134;SDS011;5107;48.850;8.924;2023-06-26T07:33:50;6.07;;;5.00;;
10134;SDS011;5107;48.850;8.924;2023-06-26T07:36:16;5.63;;;5.05;;
10134;SDS011;5107;48.850;8.924;2023-06-26T07:38:41;5.10;;;4.70;;
10134;SDS011;5107;48.850;8.924;2023-06-26T07:41:07;5.50;;;5.10;;
10134;SDS011;5107;48.850;8.924;2023-06-26T07:43:32;5.50;;;5.00;;
10134;SDS011;5107;48.850;8.924;2023-06-26T07:45:57;5.82;;;4.72;;
10134;SDS011;5107;48.850;8.924;2023-06-26T07:48:25;4.80;;;4.40;;
10134;SDS011;5107;48.850;8.924;2023-06-26T07:50:51;5.25;;;4.80;;
10134;SDS011;5107;48.850;8.924;2023-06-26T07:53:16;5.78;;;5.28;;
10134;SDS011;5107;48.850;8.924;2023-06-26T07:55:42;5.32;;;4.82;;
10134;SDS011;5107;48.850;8.924;2023-06-26T07:58:08;5.55;;;5.05;;
10134;SDS011;5107;48.850;8.924;2023-06-26T08:00:34;5.55;;;5.05;;
10134;SDS011;5107;48.850;8.924;2023-06-26T08:02:59;5.55;;;5.13;;
10134;SDS011;5107;48.850;8.924;2023-06-26T08:05:24;5.50;;;5.07;;
10134;SDS011;5107;48.850;8.924;2023-06-26T08:07:50;5.45;;;4.97;;
10134;SDS011;5107;48.850;8.924;2023-06-26T08:10:15;5.72;;;5.22;;
10134;SDS011;5107;48.850;8.924;2023-06-26T08:12:40;5.75;;;4.72;;
10134;SDS011;5107;48.850;8.924;2023-06-26T08:15:09;5.28;;;4.78;;
10134;SDS011;5107;48.850;8.924;2023-06-26T08:17:35;5.50;;;5.05;;
10134;SDS011;5107;48.850;8.924;2023-06-26T08:20:03;5.95;;;5.45;;
10134;SDS011;5107;48.850;8.924;2023-06-26T08:22:29;5.28;;;4.82;;
10134;SDS011;5107;48.850;8.924;2023-06-26T08:24:54;5.05;;;4.65;;
10134;SDS011;5107;48.850;8.924;2023-06-26T08:27:19;5.82;;;5.32;;
10134;SDS011;5107;48.850;8.924;2023-06-26T08:29:44;5.43;;;4.93;;
10134;SDS011;5107;48.850;8.924;2023-06-26T08:32:10;4.85;;;4.45;;
10134;SDS011;5107;48.850;8.924;2023-06-26T08:34:35;5.22;;;4.82;;
10134;SDS011;5107;48.850;8.924;2023-06-26T08:37:01;5.18;;;4.78;;
10134;SDS011;5107;48.850;8.924;2023-06-26T08:39:26;5.40;;;4.90;;
10134;SDS011;5107;48.850;8.924;2023-06-26T08:41:52;5.57;;;5.07;;
10134;SDS011;5107;48.850;8.924;2023-06-26T08:44:17;6.65;;;4.97;;
10134;SDS011;5107;48.850;8.924;2023-06-26T08:46:43;5.68;;;4.97;;
10134;SDS011;5107;48.850;8.924;2023-06-26T08:49:18;5.63;;;5.22;;
10134;SDS011;5107;48.850;8.924;2023-06-26T08:51:54;5.45;;;5.05;;
10134;SDS011;5107;48.850;8.924;2023-06-26T08:54:27;5.78;;;5.28;;
10134;SDS011;5107;48.850;8.924;2023-06-26T08:56:55;5.38;;;4.97;;
10134;SDS011;5107;48.850;8.924;2023-06-26T08:59:23;5.55;;;5.03;;
10134;SDS011;5107;48.850;8.924;2023-06-26T09:01:48;5.15;;;4.75;;
10134;SDS011;5107;48.850;8.924;2023-06-26T09:04:15;5.68;;;5.18;;
10134;SDS011;5107;48.850;8.924;2023-06-26T09:06:41;5.97;;;5.47;;
10134;SDS011;5107;48.850;8.924;2023-06-26T09:09:06;5.65;;;5.25;;
10134;SDS011;5107;48.850;8.924;2023-06-26T09:11:32;5.97;;;5.47;;
10134;SDS011;5107;48.850;8.924;2023-06-26T09:13:58;6.13;;;5.53;;
10134;SDS011;5107;48.850;8.924;2023-06-26T09:16:25;5.90;;;5.40;;
10134;SDS011;5107;48.850;8.924;2023-06-26T09:18:53;6.00;;;5.40;;
10134;SDS011;5107;48.850;8.924;2023-06-26T09:21:21;6.13;;;5.63;;
10134;SDS011;5107;48.850;8.924;2023-06-26T09:23:49;6.05;;;5.55;;
10134;SDS011;5107;48.850;8.924;2023-06-26T09:26:15;6.28;;;5.75;;
10134;SDS011;5107;48.850;8.924;2023-06-26T09:28:42;6.65;;;6.05;;
10134;SDS011;5107;48.850;8.924;2023-06-26T09:31:08;6.82;;;6.03;;
10134;SDS011;5107;48.850;8.924;2023-06-26T09:33:35;6.30;;;5.70;;
10134;SDS011;5107;48.850;8.924;2023-06-26T09:36:04;6.97;;;6.38;;
10134;SDS011;5107;48.850;8.924;2023-06-26T09:38:31;6.85;;;6.22;;
10134;SDS011;5107;48.850;8.924;2023-06-26T09:40:56;7.03;;;6.43;;
10134;SDS011;5107;48.850;8.924;2023-06-26T09:43:22;7.15;;;6.25;;
10134;SDS011;5107;48.850;8.924;2023-06-26T09:45:48;6.38;;;5.88;;
10134;SDS011;5107;48.850;8.924;2023-06-26T09:48:13;6.72;;;6.13;;
10134;SDS011;5107;48.850;8.924;2023-06-26T09:50:41;7.32;;;6.65;;
10134;SDS011;5107;48.850;8.924;2023-06-26T09:53:10;7.20;;;6.50;;
10134;SDS011;5107;48.850;8.924;2023-06-26T09:55:38;8.00;;;6.60;;
10134;SDS011;5107;48.850;8.924;2023-06-26T09:58:05;6.97;;;6.38;;
10134;SDS011;5107;48.850;8.924;2023-06-26T10:00:31;7.25;;;6.53;;
10134;SDS011;5107;48.850;8.924;2023-06-26T10:03:00;8.75;;;7.00;;
10134;SDS011;5107;48.850;8.924;2023-06-26T10:05:26;7.15;;;6.45;;
10134;SDS011;5107;48.850;8.924;2023-06-26T10:07:52;10.57;;;6.55;;
10134;SDS011;5107;48.850;8.924;2023-06-26T10:10:18;7.18;;;6.47;;
10134;SDS011;5107;48.850;8.924;2023-06-26T10:12:44;7.18;;;6.47;;
10134;SDS011;5107;48.850;8.924;2023-06-26T10:15:14;8.55;;;6.57;;
10134;SDS011;5107;48.850;8.924;2023-06-26T10:17:42;7.18;;;6.57;;
10134;SDS011;5107;48.850;8.924;2023-06-26T10:20:08;7.13;;;6.40;;
10134;SDS011;5107;48.850;8.924;2023-06-26T10:22:44;7.55;;;6.78;;
10134;SDS011;5107;48.850;8.924;2023-06-26T10:25:10;7.40;;;6.65;;
10134;SDS011;5107;48.850;8.924;2023-06-26T10:27:40;7.75;;;6.13;;
10134;SDS011;5107;48.850;8.924;2023-06-26T10:30:12;7.65;;;6.32;;
10134;SDS011;5107;48.850;8.924;2023-06-26T10:32:42;7.38;;;6.63;;
10134;SDS011;5107;48.850;8.924;2023-06-26T10:35:08;7.40;;;6.70;;
10134;SDS011;5107;48.850;8.924;2023-06-26T10:37:45;7.32;;;6.72;;
10134;SDS011;5107;48.850;8.924;2023-06-26T10:40:12;7.20;;;6.60;;
10134;SDS011;5107;48.850;8.924;2023-06-26T10:42:39;7.18;;;6.53;;
10134;SDS011;5107;48.850;8.924;2023-06-26T10:45:09;7.07;;;6.47;;
10134;SDS011;5107;48.850;8.924;2023-06-26T10:47:37;7.10;;;6.50;;
10134;SDS011;5107;48.850;8.924;2023-06-26T10:50:16;7.65;;;6.88;;
10134;SDS011;5107;48.850;8.924;2023-06-26T10:52:41;7.82;;;7.03;;
10134;SDS011;5107;48.850;8.924;2023-06-26T10:55:08;7.40;;;6.70;;
10134;SDS011;5107;48.850;8.924;2023-06-26T10:57:36;7.28;;;6.22;;
10134;SDS011;5107;48.850;8.924;2023-06-26T11:00:11;6.60;;;6.00;;
10134;SDS011;5107;48.850;8.924;2023-06-26T11:02:54;7.00;;;6.38;;
10134;SDS011;5107;48.850;8.924;2023-06-26T11:05:23;7.53;;;6.20;;
10134;SDS011;5107;48.850;8.924;2023-06-26T11:10:59;7.10;;;6.18;;
10134;SDS011;5107;48.850;8.924;2023-06-26T11:13:27;7.03;;;6.07;;
10134;SDS011;5107;48.850;8.924;2023-06-26T11:16:02;7.00;;;6.40;;
10134;SDS011;5107;48.850;8.924;2023-06-26T11:18:34;7.60;;;6.45;;
10134;SDS011;5107;48.850;8.924;2023-06-26T11:21:09;6.63;;;6.03;;
10134;SDS011;5107;48.850;8.924;2023-06-26T11:23:41;7.10;;;6.40;;
10134;SDS011;5107;48.850;8.924;2023-06-26T11:26:17;6.80;;;6.03;;
10134;SDS011;5107;48.850;8.924;2023-06-26T11:28:57;7.30;;;6.60;;
10134;SDS011;5107;48.850;8.924;2023-06-26T11:33:55;6.85;;;6.20;;
10134;SDS011;5107;48.850;8.924;2023-06-26T11:36:24;7.10;;;6.32;;
10134;SDS011;5107;48.850;8.924;2023-06-26T11:41:31;7.03;;;6.32;;
10134;SDS011;5107;48.850;8.924;2023-06-26T11:44:00;7.00;;;6.30;;
10134;SDS011;5107;48.850;8.924;2023-06-26T11:46:29;8.52;;;6.53;;
10134;SDS011;5107;48.850;8.924;2023-06-26T11:49:21;7.32;;;6.28;;
10134;SDS011;5107;48.850;8.924;2023-06-26T11:51:51;8.50;;;6.47;;
10134;SDS011;5107;48.850;8.924;2023-06-26T11:54:25;6.55;;;5.97;;
10134;SDS011;5107;48.850;8.924;2023-06-26T11:56:58;7.00;;;6.35;;
10134;SDS011;5107;48.850;8.924;2023-06-26T11:59:24;9.55;;;6.10;;
10134;SDS011;5107;48.850;8.924;2023-06-26T12:01:58;9.00;;;6.05;;
10134;SDS011;5107;48.850;8.924;2023-06-26T12:04:23;9.18;;;6.18;;
10134;SDS011;5107;48.850;8.924;2023-06-26T12:06:51;7.13;;;6.20;;
10134;SDS011;5107;48.850;8.924;2023-06-26T12:09:24;7.85;;;5.70;;
10134;SDS011;5107;48.850;8.924;2023-06-26T12:11:58;9.23;;;6.40;;
10134;SDS011;5107;48.850;8.924;2023-06-26T12:14:24;9.27;;;6.40;;
10134;SDS011;5107;48.850;8.924;2023-06-26T12:16:52;6.70;;;6.10;;
10134;SDS011;5107;48.850;8.924;2023-06-26T12:19:24;9.20;;;6.18;;
10134;SDS011;5107;48.850;8.924;2023-06-26T12:21:52;6.90;;;6.22;;
10134;SDS011;5107;48.850;8.924;2023-06-26T12:24:31;6.95;;;6.35;;
10134;SDS011;5107;48.850;8.924;2023-06-26T12:26:59;6.63;;;5.68;;
10134;SDS011;5107;48.850;8.924;2023-06-26T12:29:33;7.82;;;5.82;;
10134;SDS011;5107;48.850;8.924;2023-06-26T12:32:07;6.93;;;5.82;;
10134;SDS011;5107;48.850;8.924;2023-06-26T12:34:37;6.28;;;5.47;;
10134;SDS011;5107;48.850;8.924;2023-06-26T12:37:09;7.22;;;6.25;;
10134;SDS011;5107;48.850;8.924;2023-06-26T12:42:50;6.75;;;6.05;;
10134;SDS011;5107;48.850;8.924;2023-06-26T12:45:53;9.75;;;5.80;;
10134;SDS011;5107;48.850;8.924;2023-06-26T12:48:22;6.18;;;5.50;;
10134;SDS011;5107;48.850;8.924;2023-06-26T12:51:14;6.32;;;4.88;;
10134;SDS011;5107;48.850;8.924;2023-06-26T12:53:51;5.70;;;5.20;;
10134;SDS011;5107;48.850;8.924;2023-06-26T12:56:28;5.22;;;4.75;;
10134;SDS011;5107;48.850;8.924;2023-06-26T12:58:54;5.43;;;4.90;;
10134;SDS011;5107;48.850;8.924;2023-06-26T13:01:19;6.25;;;5.05;;
10134;SDS011;5107;48.850;8.924;2023-06-26T13:03:44;7.60;;;5.57;;
10134;SDS011;5107;48.850;8.924;2023-06-26T13:06:30;6.65;;;5.50;;
10134;SDS011;5107;48.850;8.924;2023-06-26T13:09:01;5.68;;;5.18;;
10134;SDS011;5107;48.850;8.924;2023-06-26T13:11:33;5.22;;;4.72;;
10134;SDS011;5107;48.850;8.924;2023-06-26T13:14:01;5.40;;;4.90;;
10134;SDS011;5107;48.850;8.924;2023-06-26T13:16:32;7.00;;;4.82;;
10134;SDS011;5107;48.850;8.924;2023-06-26T13:19:01;6.25;;;5.03;;
10134;SDS011;5107;48.850;8.924;2023-06-26T13:21:34;5.43;;;4.70;;
10134;SDS011;5107;48.850;8.924;2023-06-26T13:24:31;5.28;;;4.75;;
10134;SDS011;5107;48.850;8.924;2023-06-26T13:27:02;4.95;;;4.47;;
10134;SDS011;5107;48.850;8.924;2023-06-26T13:29:37;7.05;;;4.80;;
10134;SDS011;5107;48.850;8.924;2023-06-26T13:32:02;4.85;;;4.43;;
10134;SDS011;5107;48.850;8.924;2023-06-26T13:34:34;4.93;;;4.43;;
10134;SDS011;5107;48.850;8.924;2023-06-26T13:36:59;5.65;;;4.72;;
10134;SDS011;5107;48.850;8.924;2023-06-26T13:39:25;4.65;;;4.25;;
10134;SDS011;5107;48.850;8.924;2023-06-26T13:41:50;5.78;;;5.28;;
10134;SDS011;5107;48.850;8.924;2023-06-26T13:44:24;4.63;;;4.22;;
10134;SDS011;5107;48.850;8.924;2023-06-26T13:46:53;5.07;;;4.25;;
10134;SDS011;5107;48.850;8.924;2023-06-26T13:49:18;5.07;;;4.47;;
10134;SDS011;5107;48.850;8.924;2023-06-26T13:51:55;4.97;;;3.75;;
10134;SDS011;5107;48.850;8.924;2023-06-26T13:54:23;4.90;;;3.90;;
10134;SDS011;5107;48.850;8.924;2023-06-26T13:56:52;4.75;;;4.18;;
10134;SDS011;5107;48.850;8.924;2023-06-26T13:59:25;5.72;;;3.95;;
10134;SDS011;5107;48.850;8.924;2023-06-26T14:01:50;5.38;;;3.33;;
10134;SDS011;5107;48.850;8.924;2023-06-26T14:04:19;4.63;;;3.60;;
10134;SDS011;5107;48.850;8.924;2023-06-26T14:06:47;5.05;;;3.55;;
10134;SDS011;5107;48.850;8.924;2023-06-26T14:09:19;8.65;;;3.42;;
10134;SDS011;5107;48.850;8.924;2023-06-26T14:11:44;4.10;;;3.70;;
10134;SDS011;5107;48.850;8.924;2023-06-26T14:14:15;6.13;;;4.20;;
10134;SDS011;5107;48.850;8.924;2023-06-26T14:16:43;4.43;;;3.33;;
10134;SDS011;5107;48.850;8.924;2023-06-26T14:19:14;3.90;;;3.60;;
10134;SDS011;5107;48.850;8.924;2023-06-26T14:22:05;4.13;;;3.63;;
10134;SDS011;5107;48.850;8.924;2023-06-26T14:24:32;5.10;;;3.88;;
10134;SDS011;5107;48.850;8.924;2023-06-26T14:26:58;7.30;;;4.03;;
10134;SDS011;5107;48.850;8.924;2023-06-26T14:29:29;6.85;;;5.20;;
10134;SDS011;5107;48.850;8.924;2023-06-26T14:32:03;7.20;;;6.47;;
10134;SDS011;5107;48.850;8.924;2023-06-26T14:34:32;5.03;;;4.55;;
10134;SDS011;5107;48.850;8.924;2023-06-26T14:37:18;5.93;;;4.40;;
10134;SDS011;5107;48.850;8.924;2023-06-26T14:39:48;5.40;;;3.85;;
10134;SDS011;5107;48.850;8.924;2023-06-26T14:42:26;5.68;;;4.28;;
10134;SDS011;5107;48.850;8.924;2023-06-26T14:45:14;6.07;;;5.05;;
10134;SDS011;5107;48.850;8.924;2023-06-26T14:47:39;6.75;;;4.90;;
10134;SDS011;5107;48.850;8.924;2023-06-26T14:50:08;5.20;;;4.70;;
10134;SDS011;5107;48.850;8.924;2023-06-26T14:52:34;4.82;;;4.40;;
10134;SDS011;5107;48.850;8.924;2023-06-26T14:55:09;6.30;;;4.97;;
10134;SDS011;5107;48.850;8.924;2023-06-26T14:57:37;16.55;;;13.38;;
10134;SDS011;5107;48.850;8.924;2023-06-26T15:00:09;6.63;;;5.40;;
10134;SDS011;5107;48.850;8.924;2023-06-26T15:02:37;7.47;;;5.05;;
10134;SDS011;5107;48.850;8.924;2023-06-26T15:05:02;5.80;;;5.30;;
10134;SDS011;5107;48.850;8.924;2023-06-26T15:07:32;8.73;;;5.78;;
10134;SDS011;5107;48.850;8.924;2023-06-26T15:10:01;7.72;;;5.70;;
10134;SDS011;5107;48.850;8.924;2023-06-26T15:12:27;6.32;;;5.72;;
10134;SDS011;5107;48.850;8.924;2023-06-26T15:14:54;6.80;;;5.75;;
10134;SDS011;5107;48.850;8.924;2023-06-26T15:17:25;7.05;;;5.60;;
10134;SDS011;5107;48.850;8.924;2023-06-26T15:19:51;7.82;;;5.25;;
10134;SDS011;5107;48.850;8.924;2023-06-26T15:22:26;7.75;;;5.57;;